AOH weather

Lima Allen County Airport
Lima, Ohio, United States

Public forecast

Using degrees Fahrenheit for public forecast. Weather courtesy of forecast.io.

Current aviation weather report (METAR) for Lima Allen County Airport

Retrieved 2020/01/29 01:53 UTC (18 minutes ago):

KAOH 290153Z AUTO 31003KT 8SM OVC024 00/M02 A3008 RMK AO2 SLP196 T00001022

Closest aviation forecast (TAF) to Lima Allen County Airport

Closest forecast is Findlay Airport, 24.6 nm (45.5 km) NE. Retrieved 2020-01-29 00:30 UTC (2 hours ago):

TAF KFDY 282328Z 2900/2924 29004KT 6SM BR OVC025 FM290600 VRB03KT P6SM BKN012 FM291800 07005KT P6SM OVC015